createdAt,value
2022-11-17T00:00:47.521Z,83.56
2022-11-17T00:03:16.142Z,83.00
2022-11-17T00:05:44.507Z,83.25
2022-11-17T00:08:12.944Z,83.24
2022-11-17T00:10:42.459Z,83.12
2022-11-17T00:13:29.009Z,83.46
2022-11-17T00:15:57.139Z,83.60
2022-11-17T00:18:42.665Z,83.30
2022-11-17T00:21:23.703Z,82.79
2022-11-17T00:23:52.005Z,82.99
2022-11-17T00:26:23.027Z,83.29
2022-11-17T00:28:53.513Z,83.45
2022-11-17T00:31:39.896Z,83.43
2022-11-17T00:34:08.678Z,83.12
2022-11-17T00:36:39.390Z,83.21
2022-11-17T00:39:07.857Z,83.34
2022-11-17T00:41:37.379Z,83.17
2022-11-17T00:44:06.364Z,82.65
2022-11-17T00:46:35.020Z,83.12
2022-11-17T00:49:03.200Z,82.79
2022-11-17T00:51:31.340Z,82.84
2022-11-17T00:53:59.614Z,82.81
2022-11-17T00:56:28.054Z,82.77
2022-11-17T00:58:57.580Z,83.17
2022-11-17T01:01:30.028Z,82.97
2022-11-17T01:04:04.158Z,83.11
2022-11-17T01:06:37.080Z,83.13
2022-11-17T01:09:07.865Z,82.66
2022-11-17T01:11:35.957Z,82.96
2022-11-17T01:14:05.510Z,83.03
2022-11-17T01:16:34.344Z,82.87
2022-11-17T01:19:03.755Z,82.76
2022-11-17T01:21:33.175Z,82.94
2022-11-17T01:24:02.511Z,83.12
2022-11-17T01:26:32.684Z,82.91
2022-11-17T01:29:01.377Z,83.06
2022-11-17T01:31:32.576Z,83.15
2022-11-17T01:34:01.425Z,83.18
2022-11-17T01:36:51.662Z,83.21
2022-11-17T01:39:19.800Z,83.22
2022-11-17T01:41:48.007Z,83.26
2022-11-17T01:45:07.617Z,83.43
2022-11-17T01:47:42.518Z,83.58
2022-11-17T01:50:17.551Z,83.72
2022-11-17T01:52:45.875Z,83.41
2022-11-17T01:55:14.180Z,83.63
2022-11-17T01:57:44.315Z,83.37
2022-11-17T02:00:16.101Z,83.06
2022-11-17T02:02:46.444Z,83.42
2022-11-17T02:05:23.746Z,83.07
2022-11-17T02:07:55.019Z,83.57
2022-11-17T02:10:23.168Z,83.28
2022-11-17T02:12:54.426Z,83.08
2022-11-17T02:15:23.381Z,83.55
2022-11-17T02:17:54.216Z,83.15
2022-11-17T02:20:30.479Z,82.98
2022-11-17T02:23:34.298Z,83.51
2022-11-17T02:26:18.638Z,83.68
2022-11-17T02:28:49.986Z,83.00
2022-11-17T02:31:23.883Z,83.45
2022-11-17T02:33:56.714Z,83.57
2022-11-17T02:36:33.015Z,83.60
2022-11-17T02:39:06.563Z,83.43
2022-11-17T02:41:39.548Z,83.32
2022-11-17T02:44:11.222Z,82.96
2022-11-17T02:46:45.247Z,83.42
2022-11-17T02:49:19.783Z,83.37
2022-11-17T02:51:51.252Z,83.55
2022-11-17T02:54:20.188Z,83.19
2022-11-17T02:56:48.306Z,83.02
2022-11-17T02:59:19.920Z,83.52
2022-11-17T03:02:09.975Z,83.57
2022-11-17T03:04:44.985Z,83.38
2022-11-17T03:07:23.570Z,83.73
2022-11-17T03:09:59.025Z,83.54
2022-11-17T03:12:32.809Z,83.33
2022-11-17T03:15:07.149Z,83.43
2022-11-17T03:17:41.295Z,83.79
2022-11-17T03:20:14.155Z,83.64
2022-11-17T03:22:44.962Z,83.80
2022-11-17T03:25:16.197Z,83.67
2022-11-17T03:27:46.928Z,83.64
2022-11-17T03:30:18.044Z,83.67
2022-11-17T03:32:50.612Z,83.65
2022-11-17T03:35:21.810Z,83.73
2022-11-17T03:37:52.906Z,83.61
2022-11-17T03:40:23.498Z,83.84
2022-11-17T03:42:54.157Z,83.66
2022-11-17T03:45:25.963Z,83.65
2022-11-17T03:47:58.635Z,83.81
2022-11-17T03:50:31.821Z,83.82
2022-11-17T03:53:00.554Z,83.68
2022-11-17T03:55:34.049Z,83.67
2022-11-17T03:58:06.186Z,83.75
2022-11-17T04:00:36.284Z,83.36
2022-11-17T04:03:04.428Z,83.68
2022-11-17T04:05:32.587Z,83.11
2022-11-17T04:08:00.744Z,82.68
2022-11-17T04:10:28.887Z,83.24
2022-11-17T04:13:14.553Z,83.33
2022-11-17T04:15:59.519Z,83.26
2022-11-17T04:18:27.980Z,83.19
2022-11-17T04:20:58.161Z,83.15
2022-11-17T04:23:27.060Z,83.14
2022-11-17T04:26:25.538Z,83.32
2022-11-17T04:28:53.669Z,82.92
2022-11-17T04:31:25.843Z,82.99
2022-11-17T04:33:55.149Z,82.96
2022-11-17T04:36:25.762Z,82.90
2022-11-17T04:38:55.089Z,82.86
2022-11-17T04:41:41.753Z,82.05
2022-11-17T04:44:11.645Z,82.88
2022-11-17T04:46:44.343Z,82.88
2022-11-17T04:49:12.987Z,82.77
2022-11-17T04:51:41.426Z,82.98
2022-11-17T04:54:10.892Z,83.00
2022-11-17T04:56:39.516Z,82.96
2022-11-17T04:59:08.246Z,82.63
2022-11-17T05:01:36.551Z,82.58
2022-11-17T05:04:07.936Z,82.62
2022-11-17T05:06:38.026Z,82.86
2022-11-17T05:09:07.624Z,83.01
2022-11-17T05:11:53.209Z,82.35
2022-11-17T05:14:22.855Z,82.69
2022-11-17T05:17:09.362Z,82.48
2022-11-17T05:19:41.894Z,82.16
2022-11-17T05:22:25.191Z,82.47
2022-11-17T05:24:53.410Z,82.61
2022-11-17T05:27:21.962Z,81.68
2022-11-17T05:29:50.152Z,81.76
2022-11-17T05:32:18.868Z,82.20
2022-11-17T05:34:48.456Z,82.61
2022-11-17T05:37:16.588Z,82.49
2022-11-17T05:39:44.746Z,82.29
2022-11-17T05:42:12.903Z,82.60
2022-11-17T05:44:41.039Z,82.79
2022-11-17T05:47:09.159Z,82.65
2022-11-17T05:49:37.547Z,82.45
2022-11-17T05:52:07.114Z,82.46
2022-11-17T05:54:35.238Z,82.72
2022-11-17T05:57:05.675Z,82.70
2022-11-17T05:59:37.182Z,82.61
2022-11-17T06:02:08.710Z,82.53
2022-11-17T06:04:36.894Z,82.01
2022-11-17T06:07:06.732Z,82.52
2022-11-17T06:09:37.668Z,82.39
2022-11-17T06:12:06.708Z,82.54
2022-11-17T06:14:35.532Z,82.49
2022-11-17T06:17:07.955Z,82.41
2022-11-17T06:19:37.993Z,82.46
2022-11-17T06:22:12.610Z,82.59
2022-11-17T06:24:42.788Z,82.29
2022-11-17T06:27:11.442Z,82.48
2022-11-17T06:29:43.882Z,82.38
2022-11-17T06:32:16.971Z,82.19
2022-11-17T06:34:51.918Z,82.27
2022-11-17T06:37:24.971Z,82.37
2022-11-17T06:39:53.246Z,82.40
2022-11-17T06:42:41.862Z,82.21
2022-11-17T06:45:10.885Z,82.16
2022-11-17T06:47:39.040Z,82.40
2022-11-17T06:50:07.884Z,82.27
2022-11-17T06:52:37.363Z,82.50
2022-11-17T06:55:06.104Z,82.57
2022-11-17T06:57:34.226Z,82.39
2022-11-17T07:00:02.352Z,82.63
2022-11-17T07:02:32.398Z,82.42
2022-11-17T07:05:00.692Z,82.29
2022-11-17T07:07:28.917Z,82.73
2022-11-17T07:09:58.492Z,82.07
2022-11-17T07:12:26.651Z,81.93
2022-11-17T07:14:54.765Z,82.42
2022-11-17T07:17:22.883Z,82.64
2022-11-17T07:19:50.999Z,82.36
2022-11-17T07:22:19.107Z,82.32
2022-11-17T07:24:47.238Z,82.15
2022-11-17T07:27:16.778Z,82.36
2022-11-17T07:29:45.003Z,82.11
2022-11-17T07:32:14.869Z,81.97
2022-11-17T07:34:42.985Z,81.90
2022-11-17T07:37:11.124Z,81.95
2022-11-17T07:39:39.256Z,82.31
2022-11-17T07:42:07.728Z,82.16
2022-11-17T07:44:37.233Z,82.05
2022-11-17T07:47:05.451Z,82.02
2022-11-17T07:49:33.585Z,81.01
2022-11-17T07:52:02.054Z,82.17
2022-11-17T07:54:30.190Z,82.10
2022-11-17T07:56:58.311Z,82.23
2022-11-17T07:59:26.485Z,82.04
2022-11-17T08:01:56.056Z,82.17
2022-11-17T08:04:24.181Z,82.11
2022-11-17T08:06:52.383Z,81.65
2022-11-17T08:09:20.514Z,81.47
2022-11-17T08:11:48.638Z,81.29
2022-11-17T08:14:16.752Z,81.66
2022-11-17T08:16:44.962Z,81.10
2022-11-17T08:19:14.788Z,81.57
2022-11-17T08:21:42.941Z,81.26
2022-11-17T08:24:13.506Z,81.36
2022-11-17T08:26:41.649Z,81.11
2022-11-17T08:29:09.938Z,80.47
2022-11-17T08:31:38.733Z,81.34
2022-11-17T08:34:06.832Z,81.68
2022-11-17T08:36:36.359Z,80.96
2022-11-17T08:39:04.726Z,81.32
2022-11-17T08:41:32.937Z,81.26
2022-11-17T08:44:01.087Z,81.38
2022-11-17T08:46:29.228Z,81.46
2022-11-17T08:48:57.487Z,81.41
2022-11-17T08:51:27.228Z,80.93
2022-11-17T08:53:57.440Z,81.26
2022-11-17T08:56:25.565Z,81.33
2022-11-17T08:58:53.727Z,81.09
2022-11-17T09:01:21.895Z,81.19
2022-11-17T09:03:50.063Z,80.84
2022-11-17T09:06:19.995Z,81.12
2022-11-17T09:08:48.738Z,80.95
2022-11-17T09:11:18.322Z,81.02
2022-11-17T09:13:47.046Z,81.02
2022-11-17T09:16:16.178Z,80.84
2022-11-17T09:18:44.901Z,80.73
2022-11-17T09:21:15.123Z,80.69
2022-11-17T09:23:43.744Z,80.03
2022-11-17T09:26:14.036Z,80.54
2022-11-17T09:28:44.109Z,80.75
2022-11-17T09:31:14.382Z,80.41
2022-11-17T09:33:43.699Z,80.69
2022-11-17T09:36:12.924Z,79.86
2022-11-17T09:38:41.228Z,79.36
2022-11-17T09:41:19.488Z,80.49
2022-11-17T09:43:53.225Z,80.75
2022-11-17T09:46:26.116Z,80.53
2022-11-17T09:48:58.592Z,80.37
2022-11-17T09:51:27.836Z,80.47
2022-11-17T09:54:00.530Z,80.65
2022-11-17T09:56:28.736Z,80.66
2022-11-17T09:59:04.265Z,80.40
2022-11-17T10:01:32.639Z,80.04
2022-11-17T10:04:01.475Z,80.25
2022-11-17T10:06:31.323Z,80.21
2022-11-17T10:09:02.883Z,80.30
2022-11-17T10:11:32.623Z,80.33
2022-11-17T10:14:11.779Z,80.25
2022-11-17T10:16:41.794Z,79.91
2022-11-17T10:19:16.495Z,79.98
2022-11-17T10:21:45.219Z,80.04
2022-11-17T10:24:33.417Z,80.30
2022-11-17T10:27:01.837Z,80.53
2022-11-17T10:29:31.469Z,80.09
2022-11-17T10:31:59.831Z,80.35
2022-11-17T10:34:38.809Z,80.00
2022-11-17T10:37:24.637Z,80.30
2022-11-17T10:40:04.421Z,80.56
2022-11-17T10:42:32.551Z,80.07
2022-11-17T10:45:02.691Z,80.47
2022-11-17T10:47:34.395Z,80.47
2022-11-17T10:50:24.476Z,79.89
2022-11-17T10:52:54.020Z,79.48
2022-11-17T10:55:29.002Z,79.85
2022-11-17T10:58:00.829Z,80.40
2022-11-17T11:00:35.465Z,80.33
2022-11-17T11:03:15.664Z,80.26
2022-11-17T11:06:00.052Z,80.28
2022-11-17T11:08:33.214Z,79.73
2022-11-17T11:11:03.160Z,80.44
2022-11-17T11:13:35.224Z,80.59
2022-11-17T11:16:04.893Z,80.43
2022-11-17T11:18:33.083Z,80.56
2022-11-17T11:21:09.924Z,80.48
2022-11-17T11:23:50.154Z,80.03
2022-11-17T11:26:30.517Z,80.24
2022-11-17T11:29:14.411Z,80.23
2022-11-17T11:31:52.826Z,80.14
2022-11-17T11:34:34.723Z,80.03
2022-11-17T11:37:09.204Z,80.11
2022-11-17T11:39:45.663Z,80.05
2022-11-17T11:42:42.379Z,80.17
2022-11-17T11:45:37.740Z,80.56
2022-11-17T11:48:15.270Z,80.58
2022-11-17T11:50:51.978Z,80.42
2022-11-17T11:53:42.718Z,80.55
2022-11-17T11:56:18.391Z,80.56
2022-11-17T11:58:52.335Z,80.42
2022-11-17T12:01:22.199Z,80.59
2022-11-17T12:03:57.990Z,80.50
2022-11-17T12:06:43.587Z,80.44
2022-11-17T12:09:45.048Z,80.40
2022-11-17T12:12:16.727Z,80.52
2022-11-17T12:15:13.635Z,80.24
2022-11-17T12:17:58.568Z,80.19
2022-11-17T12:21:03.084Z,79.84
2022-11-17T12:23:50.400Z,80.16
2022-11-17T12:26:24.352Z,80.13
2022-11-17T12:29:16.888Z,80.11
2022-11-17T12:31:46.404Z,79.92
2022-11-17T12:34:24.740Z,80.16
2022-11-17T12:37:26.126Z,79.93
2022-11-17T12:40:01.596Z,80.17
2022-11-17T12:42:30.614Z,79.97
2022-11-17T12:45:16.356Z,79.77
2022-11-17T12:47:59.127Z,79.91
2022-11-17T12:51:01.881Z,80.04
2022-11-17T12:53:57.736Z,80.11
2022-11-17T12:56:41.031Z,79.80
2022-11-17T12:59:53.573Z,79.58
2022-11-17T13:02:48.906Z,79.46
2022-11-17T13:05:19.875Z,79.75
2022-11-17T13:07:48.079Z,79.75
2022-11-17T13:10:27.983Z,79.47
2022-11-17T13:13:12.987Z,79.62
2022-11-17T13:15:43.324Z,79.89
2022-11-17T13:18:16.803Z,80.07
2022-11-17T13:20:47.720Z,79.28
2022-11-17T13:23:20.387Z,78.90
2022-11-17T13:25:48.583Z,79.44
2022-11-17T13:28:32.216Z,79.49
2022-11-17T13:31:01.621Z,79.03
2022-11-17T13:33:30.942Z,79.50
2022-11-17T13:36:17.223Z,79.97
2022-11-17T13:38:49.937Z,79.82
2022-11-17T13:41:18.579Z,79.35
2022-11-17T13:43:48.744Z,79.76
2022-11-17T13:46:17.105Z,79.26
2022-11-17T13:48:46.245Z,79.08
2022-11-17T13:51:29.305Z,79.69
2022-11-17T13:54:00.868Z,79.68
2022-11-17T13:56:35.325Z,79.44
2022-11-17T13:59:07.487Z,79.54
2022-11-17T14:01:35.732Z,79.53
2022-11-17T14:04:20.628Z,79.49
2022-11-17T14:07:00.647Z,79.13
2022-11-17T14:09:30.787Z,79.50
2022-11-17T14:11:59.193Z,79.99
2022-11-17T14:14:36.961Z,79.86
2022-11-17T14:17:13.357Z,79.69
2022-11-17T14:19:41.978Z,79.31
2022-11-17T14:22:30.892Z,79.76
2022-11-17T14:24:59.969Z,80.00
2022-11-17T14:27:39.184Z,79.73
2022-11-17T14:30:14.433Z,79.36
2022-11-17T14:32:42.549Z,79.58
2022-11-17T14:35:13.875Z,79.56
2022-11-17T14:37:42.598Z,80.02
2022-11-17T14:40:14.719Z,79.96
2022-11-17T14:42:42.975Z,79.26
2022-11-17T14:45:15.696Z,79.73
2022-11-17T14:47:44.679Z,79.26
2022-11-17T14:50:14.828Z,79.76
2022-11-17T14:52:43.378Z,79.85
2022-11-17T14:55:11.974Z,79.95
2022-11-17T14:57:40.186Z,79.93
2022-11-17T15:00:13.521Z,80.17
2022-11-17T15:02:47.355Z,80.04
2022-11-17T15:05:15.747Z,80.01
2022-11-17T15:07:43.959Z,80.23
2022-11-17T15:10:12.093Z,80.08
2022-11-17T15:12:40.246Z,80.28
2022-11-17T15:15:09.355Z,80.14
2022-11-17T15:17:37.529Z,80.20
2022-11-17T15:20:09.271Z,80.15
2022-11-17T15:22:37.402Z,80.26
2022-11-17T15:25:06.188Z,80.21
2022-11-17T15:27:34.330Z,80.28
2022-11-17T15:30:02.577Z,80.28
2022-11-17T15:32:31.109Z,80.33
2022-11-17T15:34:59.252Z,80.38
2022-11-17T15:37:28.811Z,80.32
2022-11-17T15:39:56.952Z,80.43
2022-11-17T15:42:25.147Z,80.34
2022-11-17T15:44:53.283Z,80.42
2022-11-17T15:47:21.399Z,80.51
2022-11-17T15:49:49.532Z,80.53
2022-11-17T15:52:30.128Z,80.43
2022-11-17T15:55:07.960Z,80.19
2022-11-17T15:57:36.089Z,80.38
2022-11-17T16:00:06.796Z,80.37
2022-11-17T16:02:34.998Z,80.40
2022-11-17T16:05:03.112Z,80.38
2022-11-17T16:07:31.306Z,80.31
2022-11-17T16:09:59.651Z,80.38
2022-11-17T16:12:29.223Z,80.36
2022-11-17T16:14:57.483Z,80.48
2022-11-17T16:17:25.696Z,80.49
2022-11-17T16:19:53.798Z,80.58
2022-11-17T16:22:22.012Z,80.63
2022-11-17T16:24:50.130Z,80.69
2022-11-17T16:27:18.265Z,80.46
2022-11-17T16:29:47.763Z,80.82
2022-11-17T16:32:15.945Z,80.79
2022-11-17T16:34:48.890Z,80.77
2022-11-17T16:37:17.461Z,80.88
2022-11-17T16:39:45.643Z,80.90
2022-11-17T16:42:13.931Z,81.15
2022-11-17T16:44:42.182Z,81.20
2022-11-17T16:47:11.758Z,81.24
2022-11-17T16:49:39.916Z,81.65
2022-11-17T16:52:08.041Z,81.88
2022-11-17T16:54:36.189Z,81.70
2022-11-17T16:57:04.354Z,81.82
2022-11-17T16:59:32.507Z,82.02
2022-11-17T17:02:00.635Z,82.28
2022-11-17T17:04:31.727Z,82.27
2022-11-17T17:06:59.881Z,82.43
2022-11-17T17:09:30.777Z,82.54
2022-11-17T17:11:59.036Z,82.59
2022-11-17T17:14:27.158Z,82.39
2022-11-17T17:16:55.327Z,82.62
2022-11-17T17:19:24.391Z,82.77
2022-11-17T17:21:53.983Z,82.79
2022-11-17T17:24:22.385Z,83.18
2022-11-17T17:26:50.593Z,82.63
2022-11-17T17:29:18.971Z,83.19
2022-11-17T17:31:47.260Z,83.05
2022-11-17T17:34:15.399Z,82.95
2022-11-17T17:36:43.856Z,83.26
2022-11-17T17:39:16.566Z,83.19
2022-11-17T17:41:45.915Z,83.12
2022-11-17T17:46:44.992Z,83.46
2022-11-17T17:49:13.686Z,83.74
2022-11-17T17:51:44.213Z,83.56
2022-11-17T17:54:17.647Z,83.78
2022-11-17T17:56:45.982Z,83.65
2022-11-17T17:59:15.779Z,83.94
2022-11-17T18:01:46.046Z,83.81
2022-11-17T18:04:16.103Z,84.04
2022-11-17T18:06:46.048Z,83.93
2022-11-17T18:09:19.039Z,84.23
2022-11-17T18:11:49.864Z,84.20
2022-11-17T18:14:20.489Z,84.19
2022-11-17T18:16:48.663Z,84.02
2022-11-17T18:19:18.218Z,84.10
2022-11-17T18:21:46.627Z,83.78
2022-11-17T18:24:16.206Z,84.39
2022-11-17T18:26:44.399Z,84.43
2022-11-17T18:29:15.246Z,84.14
2022-11-17T18:31:46.521Z,84.24
2022-11-17T18:34:16.531Z,84.42
2022-11-17T18:36:44.709Z,84.43
2022-11-17T18:39:12.855Z,84.27
2022-11-17T18:41:42.413Z,84.06
2022-11-17T18:44:13.132Z,84.30
2022-11-17T18:46:41.314Z,84.55
2022-11-17T18:49:09.507Z,84.45
2022-11-17T18:51:37.657Z,84.37
2022-11-17T18:54:06.030Z,84.53
2022-11-17T18:56:35.488Z,84.60
2022-11-17T18:59:11.015Z,84.48
2022-11-17T19:01:40.456Z,84.60
2022-11-17T19:04:08.658Z,84.29
2022-11-17T19:06:37.346Z,84.58
2022-11-17T19:09:06.030Z,84.51
2022-11-17T19:11:34.633Z,85.10
2022-11-17T19:14:05.317Z,85.00
2022-11-17T19:16:42.574Z,84.66
2022-11-17T19:19:13.124Z,84.80
2022-11-17T19:21:41.860Z,84.71
2022-11-17T19:24:10.148Z,85.19
2022-11-17T19:26:38.428Z,84.71
2022-11-17T19:29:16.050Z,85.09
2022-11-17T19:31:44.970Z,84.83
2022-11-17T19:34:13.382Z,84.99
2022-11-17T19:36:41.493Z,84.48
2022-11-17T19:39:09.614Z,84.55
2022-11-17T19:41:39.658Z,84.85
2022-11-17T19:44:09.923Z,84.90
2022-11-17T19:46:38.954Z,84.92
2022-11-17T19:49:07.766Z,84.78
2022-11-17T19:51:37.536Z,84.94
2022-11-17T19:54:07.378Z,84.79
2022-11-17T19:56:36.364Z,85.06
2022-11-17T19:59:04.775Z,85.05
2022-11-17T20:01:34.575Z,85.01
2022-11-17T20:04:03.188Z,84.85
2022-11-17T20:06:35.332Z,84.83
2022-11-17T20:09:08.032Z,85.20
2022-11-17T20:11:36.360Z,85.00
2022-11-17T20:14:04.761Z,85.37
2022-11-17T20:16:34.542Z,85.37
2022-11-17T20:19:03.159Z,84.84
2022-11-17T20:21:31.885Z,84.71
2022-11-17T20:24:01.149Z,84.89
2022-11-17T20:26:31.713Z,85.03
2022-11-17T20:29:00.696Z,85.21
2022-11-17T20:31:30.558Z,85.14
2022-11-17T20:34:01.348Z,85.08
2022-11-17T20:36:31.019Z,85.16
2022-11-17T20:39:01.299Z,85.13
2022-11-17T20:41:29.729Z,85.51
2022-11-17T20:43:59.881Z,85.01
2022-11-17T20:46:28.062Z,85.20
2022-11-17T20:48:56.227Z,85.21
2022-11-17T20:51:26.945Z,85.69
2022-11-17T20:53:55.218Z,86.12
2022-11-17T20:56:23.656Z,85.56
2022-11-17T20:58:51.816Z,86.00
2022-11-17T21:01:22.629Z,85.65
2022-11-17T21:03:50.944Z,85.72
2022-11-17T21:06:19.792Z,85.63
2022-11-17T21:08:49.430Z,85.68
2022-11-17T21:11:32.635Z,85.72
2022-11-17T21:14:01.355Z,85.81
2022-11-17T21:16:29.541Z,85.64
2022-11-17T21:18:57.678Z,85.75
2022-11-17T21:21:25.937Z,85.63
2022-11-17T21:23:56.222Z,85.65
2022-11-17T21:26:24.816Z,85.79
2022-11-17T21:28:53.259Z,85.63
2022-11-17T21:31:23.535Z,85.38
2022-11-17T21:33:54.531Z,86.01
2022-11-17T21:36:24.053Z,85.58
2022-11-17T21:38:52.421Z,85.86
2022-11-17T21:41:23.708Z,85.67
2022-11-17T21:43:53.036Z,85.61
2022-11-17T21:46:22.668Z,85.83
2022-11-17T21:48:51.953Z,85.70
2022-11-17T21:51:21.187Z,85.89
2022-11-17T21:53:52.816Z,85.51
2022-11-17T21:56:25.613Z,85.66
2022-11-17T21:58:56.753Z,85.73
2022-11-17T22:01:25.686Z,85.60
2022-11-17T22:03:54.122Z,85.53
2022-11-17T22:06:23.866Z,85.77
2022-11-17T22:08:52.535Z,85.77
2022-11-17T22:11:36.525Z,85.60
2022-11-17T22:14:10.699Z,85.63
2022-11-17T22:16:40.310Z,85.64
2022-11-17T22:19:09.434Z,85.63
2022-11-17T22:21:38.700Z,85.63
2022-11-17T22:24:09.200Z,85.35
2022-11-17T22:26:43.801Z,85.39
2022-11-17T22:29:13.929Z,85.21
2022-11-17T22:31:42.570Z,85.52
2022-11-17T22:34:10.916Z,85.37
2022-11-17T22:36:39.148Z,85.27
2022-11-17T22:39:07.556Z,85.32
2022-11-17T22:41:36.084Z,85.37
2022-11-17T22:44:06.298Z,85.33
2022-11-17T22:46:34.826Z,85.24
2022-11-17T22:49:03.227Z,85.20
2022-11-17T22:51:49.989Z,85.27
2022-11-17T22:54:18.123Z,85.32
2022-11-17T22:56:46.333Z,85.06
2022-11-17T22:59:16.532Z,85.12
2022-11-17T23:01:44.801Z,85.22
2022-11-17T23:04:14.024Z,85.19
2022-11-17T23:06:42.219Z,85.03
2022-11-17T23:09:10.560Z,84.99
2022-11-17T23:11:38.820Z,85.02
2022-11-17T23:14:07.832Z,84.86
2022-11-17T23:16:37.936Z,84.83
2022-11-17T23:19:06.606Z,84.51
2022-11-17T23:21:34.740Z,84.77
2022-11-17T23:24:03.583Z,84.69
2022-11-17T23:26:31.721Z,84.79
2022-11-17T23:28:59.848Z,84.82
2022-11-17T23:31:28.438Z,84.75
2022-11-17T23:33:57.987Z,84.68
2022-11-17T23:36:26.129Z,84.73
2022-11-17T23:38:56.291Z,84.48
2022-11-17T23:41:24.519Z,84.49
2022-11-17T23:43:54.161Z,84.50
2022-11-17T23:46:23.623Z,84.67
2022-11-17T23:48:52.033Z,84.21
2022-11-17T23:51:23.256Z,84.47
2022-11-17T23:53:51.584Z,84.37
2022-11-17T23:56:20.479Z,84.47
2022-11-17T23:58:48.695Z,84.24
